createdAt,value
2023-04-18T00:00:06.221Z,4.49
2023-04-18T00:01:06.397Z,3.69
2023-04-18T00:02:06.586Z,4.10
2023-04-18T00:03:06.913Z,4.35
2023-04-18T00:04:07.141Z,4.12
2023-04-18T00:05:07.142Z,3.75
2023-04-18T00:06:07.261Z,4.60
2023-04-18T00:07:07.447Z,4.22
2023-04-18T00:08:07.628Z,4.85
2023-04-18T00:09:07.883Z,4.08
2023-04-18T00:10:08.053Z,3.93
2023-04-18T00:11:08.130Z,4.14
2023-04-18T00:12:08.297Z,4.31
2023-04-18T00:13:08.472Z,4.03
2023-04-18T00:14:08.672Z,4.02
2023-04-18T00:15:08.833Z,4.18
2023-04-18T00:16:09.018Z,3.46
2023-04-18T00:17:09.256Z,3.88
2023-04-18T00:18:09.508Z,3.99
2023-04-18T00:19:09.598Z,3.93
2023-04-18T00:20:09.783Z,4.41
2023-04-18T00:21:10.011Z,4.61
2023-04-18T00:22:10.182Z,4.88
2023-04-18T00:23:12.158Z,3.93
2023-04-18T00:24:10.360Z,4.10
2023-04-18T00:25:10.281Z,3.67
2023-04-18T00:26:10.219Z,4.36
2023-04-18T00:27:10.145Z,3.76
2023-04-18T00:28:10.076Z,4.62
2023-04-18T00:29:09.999Z,3.83
2023-04-18T00:30:09.939Z,4.45
2023-04-18T00:31:09.963Z,4.25
2023-04-18T00:32:09.792Z,4.36
2023-04-18T00:33:10.720Z,4.49
2023-04-18T00:34:09.633Z,4.50
2023-04-18T00:35:09.563Z,5.04
2023-04-18T00:36:09.489Z,4.48
2023-04-18T00:37:09.415Z,4.55
2023-04-18T00:38:09.342Z,4.37
2023-04-18T00:39:09.261Z,4.43
2023-04-18T00:40:09.187Z,4.49
2023-04-18T00:41:09.132Z,4.88
2023-04-18T00:42:09.211Z,4.56
2023-04-18T00:43:09.361Z,4.13
2023-04-18T00:44:09.587Z,4.64
2023-04-18T00:45:09.671Z,3.87
2023-04-18T00:46:09.931Z,4.36
2023-04-18T00:47:10.100Z,4.11
2023-04-18T00:48:10.304Z,4.44
2023-04-18T00:49:10.517Z,4.15
2023-04-18T00:50:10.734Z,4.34
2023-04-18T00:51:10.846Z,4.74
2023-04-18T00:52:11.036Z,4.40
2023-04-18T00:53:11.342Z,4.41
2023-04-18T00:54:11.696Z,4.07
2023-04-18T00:55:11.497Z,4.09
2023-04-18T00:56:11.510Z,4.31
2023-04-18T00:57:11.490Z,4.37
2023-04-18T00:58:11.479Z,4.44
2023-04-18T00:59:11.487Z,4.36
2023-04-18T01:00:11.487Z,4.64
2023-04-18T01:01:11.514Z,4.65
2023-04-18T01:02:11.490Z,4.36
2023-04-18T01:03:11.636Z,4.57
2023-04-18T01:04:11.695Z,4.67
2023-04-18T01:05:11.521Z,4.59
2023-04-18T01:06:11.452Z,4.31
2023-04-18T01:07:11.454Z,4.49
2023-04-18T01:08:11.459Z,4.50
2023-04-18T01:09:11.420Z,4.45
2023-04-18T01:10:11.415Z,4.35
2023-04-18T01:11:11.422Z,4.48
2023-04-18T01:12:11.411Z,5.54
2023-04-18T01:13:11.356Z,4.72
2023-04-18T01:14:11.576Z,4.69
2023-04-18T01:15:11.343Z,4.45
2023-04-18T01:16:11.389Z,4.34
2023-04-18T01:17:11.336Z,4.73
2023-04-18T01:18:11.335Z,4.26
2023-04-18T01:19:11.337Z,5.12
2023-04-18T01:20:11.393Z,5.22
2023-04-18T01:21:11.511Z,5.18
2023-04-18T01:22:11.731Z,5.31
2023-04-18T01:23:11.944Z,4.61
2023-04-18T01:24:12.473Z,4.88
2023-04-18T01:25:12.162Z,4.42
2023-04-18T01:26:12.162Z,4.12
2023-04-18T01:27:12.151Z,4.90
2023-04-18T01:28:12.159Z,4.86
2023-04-18T01:29:12.185Z,4.59
2023-04-18T01:30:12.153Z,4.70
2023-04-18T01:31:12.242Z,4.81
2023-04-18T01:32:12.156Z,4.06
2023-04-18T01:33:12.149Z,4.86
2023-04-18T01:34:12.355Z,4.72
2023-04-18T01:35:12.160Z,4.57
2023-04-18T01:36:12.164Z,4.54
2023-04-18T01:37:12.169Z,4.56
2023-04-18T01:38:12.175Z,4.36
2023-04-18T01:39:12.172Z,4.51
2023-04-18T01:40:12.160Z,5.13
2023-04-18T01:41:12.171Z,4.48
2023-04-18T01:42:12.168Z,3.98
2023-04-18T01:43:12.176Z,4.60
2023-04-18T01:44:12.321Z,4.15
2023-04-18T01:45:12.197Z,4.85
2023-04-18T01:46:12.202Z,4.30
2023-04-18T01:47:12.179Z,4.26
2023-04-18T01:48:12.185Z,4.35
2023-04-18T01:49:12.178Z,4.31
2023-04-18T01:50:12.865Z,4.59
2023-04-18T01:51:12.211Z,4.66
2023-04-18T01:52:12.193Z,4.49
2023-04-18T01:53:12.196Z,5.36
2023-04-18T01:54:12.339Z,5.00
2023-04-18T01:55:12.200Z,5.20
2023-04-18T01:56:12.176Z,5.10
2023-04-18T01:57:12.162Z,4.54
2023-04-18T01:58:12.172Z,5.19
2023-04-18T01:59:12.176Z,4.47
2023-04-18T02:00:12.176Z,4.92
2023-04-18T02:01:12.218Z,5.41
2023-04-18T02:02:12.206Z,4.79
2023-04-18T02:03:12.185Z,4.96
2023-04-18T02:04:12.333Z,5.18
2023-04-18T02:05:12.143Z,5.20
2023-04-18T02:06:12.146Z,5.66
2023-04-18T02:07:12.147Z,4.87
2023-04-18T02:08:12.151Z,5.45
2023-04-18T02:09:12.136Z,4.83
2023-04-18T02:10:12.145Z,5.44
2023-04-18T02:11:12.124Z,5.00
2023-04-18T02:12:12.105Z,5.19
2023-04-18T02:13:12.101Z,4.84
2023-04-18T02:14:12.335Z,4.67
2023-04-18T02:15:12.073Z,5.07
2023-04-18T02:16:12.109Z,5.11
2023-04-18T02:17:12.096Z,5.25
2023-04-18T02:18:12.062Z,5.55
2023-04-18T02:19:12.048Z,5.00
2023-04-18T02:20:12.054Z,5.11
2023-04-18T02:21:12.038Z,5.40
2023-04-18T02:22:12.034Z,5.49
2023-04-18T02:23:12.020Z,5.13
2023-04-18T02:24:12.223Z,5.09
2023-04-18T02:25:12.010Z,5.10
2023-04-18T02:26:11.976Z,5.50
2023-04-18T02:27:11.979Z,5.11
2023-04-18T02:28:12.014Z,4.91
2023-04-18T02:29:12.221Z,5.43
2023-04-18T02:30:12.426Z,5.33
2023-04-18T02:31:12.646Z,5.89
2023-04-18T02:32:12.880Z,5.70
2023-04-18T02:33:13.048Z,5.02
2023-04-18T02:34:13.472Z,5.69
2023-04-18T02:35:13.215Z,6.17
2023-04-18T02:36:13.203Z,5.62
2023-04-18T02:37:13.204Z,5.33
2023-04-18T02:38:13.210Z,5.37
2023-04-18T02:39:13.189Z,5.74
2023-04-18T02:40:13.179Z,5.40
2023-04-18T02:41:13.182Z,5.49
2023-04-18T02:42:13.154Z,5.88
2023-04-18T02:43:13.141Z,6.11
2023-04-18T02:44:13.250Z,5.33
2023-04-18T02:45:13.118Z,5.58
2023-04-18T02:46:13.138Z,6.31
2023-04-18T02:47:13.124Z,5.31
2023-04-18T02:48:13.144Z,5.80
2023-04-18T02:49:13.125Z,5.83
2023-04-18T02:50:13.120Z,5.50
2023-04-18T02:51:13.100Z,6.08
2023-04-18T02:52:13.173Z,6.10
2023-04-18T02:53:13.108Z,5.62
2023-04-18T02:54:13.370Z,6.33
2023-04-18T02:55:13.116Z,5.72
2023-04-18T02:56:13.099Z,5.68
2023-04-18T02:57:13.094Z,6.17
2023-04-18T02:58:13.085Z,5.76
2023-04-18T02:59:13.087Z,6.03
2023-04-18T03:00:13.081Z,6.24
2023-04-18T03:01:13.099Z,6.03
2023-04-18T03:02:13.095Z,5.90
2023-04-18T03:03:13.132Z,6.11
2023-04-18T03:04:13.395Z,6.58
2023-04-18T03:05:13.083Z,6.26
2023-04-18T03:06:13.053Z,5.99
2023-04-18T03:07:13.042Z,6.34
2023-04-18T03:08:13.072Z,5.61
2023-04-18T03:09:13.057Z,5.81
2023-04-18T03:10:13.071Z,5.38
2023-04-18T03:11:13.052Z,5.68
2023-04-18T03:12:13.029Z,5.82
2023-04-18T03:13:13.027Z,5.94
2023-04-18T03:14:13.195Z,5.40
2023-04-18T03:15:13.032Z,5.48
2023-04-18T03:16:13.052Z,5.85
2023-04-18T03:17:13.017Z,5.98
2023-04-18T03:18:13.067Z,5.46
2023-04-18T03:19:13.018Z,5.67
2023-04-18T03:20:13.024Z,5.43
2023-04-18T03:21:13.021Z,6.19
2023-04-18T03:22:13.003Z,6.57
2023-04-18T03:23:13.016Z,6.24
2023-04-18T03:24:13.245Z,6.71
2023-04-18T03:25:13.042Z,6.27
2023-04-18T03:26:13.031Z,5.94
2023-04-18T03:27:13.058Z,5.52
2023-04-18T03:28:13.045Z,6.30
2023-04-18T03:29:13.025Z,6.02
2023-04-18T03:30:13.038Z,6.21
2023-04-18T03:31:13.041Z,5.89
2023-04-18T03:32:13.012Z,6.02
2023-04-18T03:33:13.020Z,5.60
2023-04-18T03:34:13.241Z,6.31
2023-04-18T03:35:13.031Z,5.92
2023-04-18T03:36:13.021Z,6.22
2023-04-18T03:37:13.033Z,6.06
2023-04-18T03:38:13.028Z,6.21
2023-04-18T03:39:13.038Z,6.55
2023-04-18T03:40:12.998Z,5.64
2023-04-18T03:41:13.192Z,5.29
2023-04-18T03:42:13.335Z,5.92
2023-04-18T03:43:13.474Z,5.94
2023-04-18T03:44:13.861Z,5.81
2023-04-18T03:45:13.921Z,6.13
2023-04-18T03:46:14.117Z,5.95
2023-04-18T03:47:14.211Z,5.73
2023-04-18T03:48:14.432Z,5.36
2023-04-18T03:49:14.653Z,6.17
2023-04-18T03:50:14.785Z,5.98
2023-04-18T03:51:14.910Z,6.27
2023-04-18T03:52:15.048Z,5.59
2023-04-18T03:53:15.248Z,5.43
2023-04-18T03:54:15.767Z,5.93
2023-04-18T03:55:15.467Z,5.56
2023-04-18T03:56:15.468Z,6.15
2023-04-18T03:57:15.461Z,6.31
2023-04-18T03:58:15.451Z,5.55
2023-04-18T03:59:15.453Z,5.85
2023-04-18T04:00:15.439Z,5.53
2023-04-18T04:01:15.426Z,5.93
2023-04-18T04:02:15.511Z,5.88
2023-04-18T04:03:15.481Z,5.95
2023-04-18T04:04:15.806Z,6.53
2023-04-18T04:05:15.391Z,6.33
2023-04-18T04:06:15.361Z,6.06
2023-04-18T04:07:15.373Z,6.13
2023-04-18T04:08:15.366Z,6.91
2023-04-18T04:09:15.370Z,6.91
2023-04-18T04:10:15.373Z,5.84
2023-04-18T04:11:15.349Z,5.79
2023-04-18T04:12:15.351Z,6.34
2023-04-18T04:13:15.354Z,6.07
2023-04-18T04:14:15.534Z,5.71
2023-04-18T04:15:15.353Z,6.75
2023-04-18T04:16:15.375Z,5.82
2023-04-18T04:17:15.354Z,5.62
2023-04-18T04:18:15.352Z,5.88
2023-04-18T04:19:15.338Z,6.03
2023-04-18T04:20:15.347Z,6.34
2023-04-18T04:21:15.328Z,5.58
2023-04-18T04:22:15.328Z,6.16
2023-04-18T04:23:15.333Z,6.14
2023-04-18T04:24:15.653Z,5.70
2023-04-18T04:25:15.330Z,6.52
2023-04-18T04:26:15.305Z,5.71
2023-04-18T04:27:15.315Z,6.15
2023-04-18T04:28:15.304Z,5.94
2023-04-18T04:29:15.304Z,6.10
2023-04-18T04:30:15.306Z,6.11
2023-04-18T04:31:15.303Z,6.15
2023-04-18T04:32:15.294Z,5.71
2023-04-18T04:33:15.295Z,6.10
2023-04-18T04:34:15.447Z,6.27
2023-04-18T04:35:15.307Z,6.21
2023-04-18T04:36:17.332Z,4.96
2023-04-18T04:37:15.281Z,5.67
2023-04-18T04:38:15.216Z,5.85
2023-04-18T04:39:15.108Z,5.83
2023-04-18T04:40:15.060Z,5.95
2023-04-18T04:41:14.987Z,6.17
2023-04-18T04:42:14.915Z,5.50
2023-04-18T04:43:14.840Z,5.71
2023-04-18T04:44:14.948Z,5.82
2023-04-18T04:45:14.706Z,6.30
2023-04-18T04:46:14.709Z,6.46
2023-04-18T04:47:14.577Z,6.30
2023-04-18T04:48:14.514Z,6.77
2023-04-18T04:49:14.434Z,5.73
2023-04-18T04:50:14.374Z,5.83
2023-04-18T04:51:14.304Z,6.27
2023-04-18T04:52:14.245Z,6.07
2023-04-18T04:53:14.182Z,6.14
2023-04-18T04:54:14.495Z,5.90
2023-04-18T04:55:14.165Z,5.87
2023-04-18T04:56:14.068Z,5.18
2023-04-18T04:57:14.110Z,5.82
2023-04-18T04:58:13.934Z,6.24
2023-04-18T04:59:13.863Z,6.41
2023-04-18T05:00:13.812Z,5.31
2023-04-18T05:01:13.801Z,5.86
2023-04-18T05:02:13.735Z,6.05
2023-04-18T05:03:13.662Z,6.21
2023-04-18T05:04:13.879Z,6.14
2023-04-18T05:05:13.466Z,5.66
2023-04-18T05:06:13.408Z,6.29
2023-04-18T05:07:13.347Z,6.12
2023-04-18T05:08:13.283Z,5.18
2023-04-18T05:09:13.256Z,6.38
2023-04-18T05:10:13.178Z,5.79
2023-04-18T05:11:13.118Z,5.38
2023-04-18T05:12:13.060Z,6.00
2023-04-18T05:13:13.029Z,6.03
2023-04-18T05:14:13.275Z,5.77
2023-04-18T05:15:13.010Z,6.98
2023-04-18T05:16:13.028Z,5.88
2023-04-18T05:17:12.954Z,6.30
2023-04-18T05:18:13.110Z,5.44
2023-04-18T05:19:13.273Z,6.04
2023-04-18T05:20:13.456Z,5.29
2023-04-18T05:21:13.756Z,6.67
2023-04-18T05:22:13.902Z,6.67
2023-04-18T05:23:14.072Z,6.41
2023-04-18T05:24:14.591Z,6.42
2023-04-18T05:25:14.225Z,5.96
2023-04-18T05:26:14.217Z,5.72
2023-04-18T05:27:15.049Z,6.20
2023-04-18T05:28:14.215Z,6.15
2023-04-18T05:29:14.221Z,5.97
2023-04-18T05:30:14.244Z,5.80
2023-04-18T05:31:14.259Z,5.96
2023-04-18T05:32:14.224Z,6.17
2023-04-18T05:33:14.177Z,6.24
2023-04-18T05:34:14.483Z,6.11
2023-04-18T05:35:14.511Z,5.81
2023-04-18T05:36:14.668Z,5.82
2023-04-18T05:37:14.827Z,6.41
2023-04-18T05:38:14.767Z,6.25
2023-04-18T05:39:14.705Z,6.98
2023-04-18T05:40:14.629Z,6.41
2023-04-18T05:41:15.434Z,6.88
2023-04-18T05:42:14.500Z,7.53
2023-04-18T05:43:14.435Z,6.71
2023-04-18T05:44:14.389Z,7.06
2023-04-18T05:45:14.949Z,7.47
2023-04-18T05:46:14.268Z,7.35
2023-04-18T05:47:14.174Z,7.35
2023-04-18T05:48:14.104Z,7.00
2023-04-18T05:49:14.043Z,7.38
2023-04-18T05:50:13.974Z,7.44
2023-04-18T05:51:13.910Z,6.79
2023-04-18T05:52:13.838Z,7.89
2023-04-18T05:53:13.916Z,7.37
2023-04-18T05:54:14.365Z,8.55
2023-04-18T05:55:14.117Z,8.53
2023-04-18T05:56:14.128Z,8.76
2023-04-18T05:57:14.139Z,7.51
2023-04-18T05:58:14.116Z,6.77
2023-04-18T05:59:14.113Z,7.80
2023-04-18T06:00:14.232Z,7.67
2023-04-18T06:01:14.111Z,8.41
2023-04-18T06:02:14.142Z,8.75
2023-04-18T06:03:14.155Z,8.11
2023-04-18T06:04:14.540Z,9.03
2023-04-18T06:05:14.401Z,9.08
2023-04-18T06:06:14.116Z,9.56
2023-04-18T06:07:14.104Z,7.75
2023-04-18T06:08:14.083Z,9.04
2023-04-18T06:09:14.248Z,8.35
2023-04-18T06:10:14.425Z,7.48
2023-04-18T06:11:14.686Z,7.36
2023-04-18T06:12:14.911Z,8.22
2023-04-18T06:13:15.094Z,8.66
2023-04-18T06:14:15.677Z,8.50
2023-04-18T06:15:15.333Z,11.04
2023-04-18T06:16:15.374Z,11.86
2023-04-18T06:17:15.313Z,11.63
2023-04-18T06:18:15.319Z,10.94
2023-04-18T06:19:15.308Z,11.11
2023-04-18T06:20:15.318Z,11.85
2023-04-18T06:21:15.301Z,11.13
2023-04-18T06:22:15.300Z,10.08
2023-04-18T06:23:15.302Z,8.43
2023-04-18T06:24:15.695Z,8.57
2023-04-18T06:25:15.293Z,9.04
2023-04-18T06:26:15.371Z,9.77
2023-04-18T06:27:30.274Z,9.09
2023-04-18T06:28:16.856Z,8.89
2023-04-18T06:29:15.144Z,8.50
2023-04-18T06:30:15.118Z,9.46
2023-04-18T06:31:15.116Z,8.50
2023-04-18T06:32:14.952Z,7.46
2023-04-18T06:33:14.974Z,8.23
2023-04-18T06:34:15.799Z,7.62
2023-04-18T06:35:14.734Z,9.06
2023-04-18T06:36:14.667Z,10.05
2023-04-18T06:37:14.601Z,10.86
2023-04-18T06:38:14.589Z,9.04
2023-04-18T06:39:14.582Z,9.12
2023-04-18T06:40:14.579Z,9.20
2023-04-18T06:41:14.581Z,8.32
2023-04-18T06:42:14.607Z,9.10
2023-04-18T06:43:14.568Z,8.33
2023-04-18T06:44:14.698Z,7.73
2023-04-18T06:45:14.530Z,7.54
2023-04-18T06:46:14.541Z,7.32
2023-04-18T06:47:14.564Z,8.05
2023-04-18T06:48:14.776Z,9.41
2023-04-18T06:49:14.968Z,9.14
2023-04-18T06:50:15.167Z,7.99
2023-04-18T06:51:15.373Z,7.75
2023-04-18T06:52:15.593Z,8.50
2023-04-18T06:53:15.814Z,8.02
2023-04-18T06:54:16.196Z,7.80
2023-04-18T06:55:16.149Z,8.48
2023-04-18T06:56:16.339Z,7.76
2023-04-18T06:57:16.553Z,7.80
2023-04-18T06:58:16.903Z,7.28
2023-04-18T06:59:16.993Z,7.80
2023-04-18T07:00:17.279Z,7.84
2023-04-18T07:01:17.502Z,8.03
2023-04-18T07:02:17.770Z,7.97
2023-04-18T07:03:18.264Z,8.62
2023-04-18T07:04:18.451Z,8.13
2023-04-18T07:05:17.885Z,7.65
2023-04-18T07:06:17.850Z,7.64
2023-04-18T07:07:17.799Z,7.27
2023-04-18T07:08:18.450Z,7.38
2023-04-18T07:09:17.996Z,7.50
2023-04-18T07:10:17.947Z,7.40
2023-04-18T07:11:17.930Z,7.02
2023-04-18T07:12:17.891Z,6.68
2023-04-18T07:13:17.829Z,7.93
2023-04-18T07:14:17.785Z,6.84
2023-04-18T07:15:17.750Z,6.63
2023-04-18T07:16:17.704Z,7.08
2023-04-18T07:17:17.669Z,6.96
2023-04-18T07:18:30.288Z,7.68
2023-04-18T07:19:18.511Z,6.95
2023-04-18T07:20:17.413Z,7.09
2023-04-18T07:21:17.777Z,6.78
2023-04-18T07:22:17.641Z,7.72
2023-04-18T07:23:17.879Z,6.89
2023-04-18T07:24:18.085Z,8.12
2023-04-18T07:25:18.311Z,7.24
2023-04-18T07:26:18.533Z,7.49
2023-04-18T07:27:18.701Z,6.69
2023-04-18T07:28:20.364Z,6.96
2023-04-18T07:29:18.880Z,7.14
2023-04-18T07:30:18.693Z,6.94
2023-04-18T07:31:18.630Z,7.43
2023-04-18T07:32:18.608Z,7.11
2023-04-18T07:33:18.447Z,7.61
2023-04-18T07:34:18.345Z,8.39
2023-04-18T07:35:18.376Z,7.80
2023-04-18T07:36:18.186Z,6.86
2023-04-18T07:37:18.069Z,7.68
2023-04-18T07:38:18.960Z,8.72
2023-04-18T07:39:17.893Z,7.32
2023-04-18T07:40:17.896Z,8.01
2023-04-18T07:41:17.696Z,8.09
2023-04-18T07:42:17.589Z,8.03
2023-04-18T07:43:18.398Z,7.03
2023-04-18T07:44:17.435Z,7.56
2023-04-18T07:45:17.313Z,7.44
2023-04-18T07:46:17.287Z,7.12
2023-04-18T07:47:17.160Z,7.87
2023-04-18T07:48:17.082Z,7.43
2023-04-18T07:49:17.048Z,6.71
2023-04-18T07:50:16.870Z,6.95
2023-04-18T07:51:17.020Z,7.01
2023-04-18T07:52:16.766Z,7.02
2023-04-18T07:53:16.967Z,7.18
2023-04-18T07:54:17.130Z,7.34
2023-04-18T07:55:17.392Z,6.20
2023-04-18T07:56:17.572Z,6.17
2023-04-18T07:57:17.675Z,6.89
2023-04-18T07:58:17.958Z,6.93
2023-04-18T07:59:18.055Z,7.11
2023-04-18T08:00:18.325Z,6.51
2023-04-18T08:01:18.519Z,6.68
2023-04-18T08:02:18.727Z,6.66
2023-04-18T08:03:19.097Z,6.63
2023-04-18T08:04:19.027Z,6.62
2023-04-18T08:05:18.786Z,5.85
2023-04-18T08:06:19.005Z,6.44
2023-04-18T08:07:18.770Z,6.28
2023-04-18T08:08:18.861Z,6.87
2023-04-18T08:09:18.965Z,6.57
2023-04-18T08:10:19.190Z,6.19
2023-04-18T08:11:19.377Z,6.01
2023-04-18T08:12:19.513Z,5.93
2023-04-18T08:13:19.769Z,7.70
2023-04-18T08:14:19.953Z,7.38
2023-04-18T08:15:20.116Z,5.02
2023-04-18T08:16:20.373Z,5.70
2023-04-18T08:17:20.536Z,6.21
2023-04-18T08:18:20.705Z,5.51
2023-04-18T08:19:20.859Z,5.30
2023-04-18T08:20:21.047Z,5.66
2023-04-18T08:21:21.324Z,5.82
2023-04-18T08:22:21.621Z,5.43
2023-04-18T08:23:21.630Z,5.47
2023-04-18T08:24:21.830Z,5.22
2023-04-18T08:25:22.008Z,5.84
2023-04-18T08:26:22.203Z,5.41
2023-04-18T08:27:22.375Z,4.88
2023-04-18T08:28:22.556Z,5.87
2023-04-18T08:29:22.726Z,5.08
2023-04-18T08:30:22.903Z,5.07
2023-04-18T08:31:23.933Z,4.44
2023-04-18T08:32:23.117Z,5.03
2023-04-18T08:33:23.048Z,5.43
2023-04-18T08:34:23.014Z,6.27
2023-04-18T08:35:22.997Z,6.18
2023-04-18T08:36:22.947Z,5.32
2023-04-18T08:37:22.868Z,4.90
2023-04-18T08:38:22.835Z,4.81
2023-04-18T08:39:25.188Z,4.60
2023-04-18T08:40:22.845Z,4.62
2023-04-18T08:41:22.805Z,4.00
2023-04-18T08:42:22.776Z,4.07
2023-04-18T08:43:22.740Z,3.43
2023-04-18T08:44:22.709Z,3.97
2023-04-18T08:45:22.645Z,5.10
2023-04-18T08:46:22.785Z,3.60
2023-04-18T08:47:22.545Z,4.84
2023-04-18T08:48:22.509Z,4.61
2023-04-18T08:49:22.399Z,4.80
2023-04-18T08:50:22.355Z,4.01
2023-04-18T08:51:22.466Z,4.20
2023-04-18T08:52:22.711Z,3.51
2023-04-18T08:53:22.845Z,4.37
2023-04-18T08:54:23.838Z,3.74
2023-04-18T08:55:22.918Z,4.90
2023-04-18T08:56:22.877Z,4.83
2023-04-18T08:57:22.807Z,3.97
2023-04-18T08:58:22.719Z,4.68
2023-04-18T08:59:22.646Z,4.02
2023-04-18T09:00:22.593Z,4.63
2023-04-18T09:01:22.583Z,4.01
2023-04-18T09:02:22.567Z,3.53
2023-04-18T09:03:22.521Z,6.70
2023-04-18T09:04:22.694Z,3.38
2023-04-18T09:05:22.779Z,3.99
2023-04-18T09:06:22.961Z,3.88
2023-04-18T09:07:23.122Z,3.37
2023-04-18T09:08:23.270Z,3.82
2023-04-18T09:09:23.405Z,3.21
2023-04-18T09:10:23.634Z,3.56
2023-04-18T09:11:23.778Z,3.07
2023-04-18T09:12:23.913Z,3.96
2023-04-18T09:13:24.621Z,3.26
2023-04-18T09:14:23.975Z,3.82
2023-04-18T09:15:23.881Z,3.42
2023-04-18T09:16:23.768Z,3.80
2023-04-18T09:17:23.748Z,3.30
2023-04-18T09:18:24.487Z,3.48
2023-04-18T09:19:23.361Z,3.38
2023-04-18T09:20:23.236Z,3.15
2023-04-18T09:21:23.100Z,2.78
2023-04-18T09:22:22.955Z,3.06
2023-04-18T09:23:22.819Z,3.35
2023-04-18T09:24:22.713Z,3.20
2023-04-18T09:25:23.401Z,3.42
2023-04-18T09:26:22.638Z,3.39
2023-04-18T09:27:22.401Z,3.30
2023-04-18T09:28:22.985Z,3.83
2023-04-18T09:29:22.533Z,3.50
2023-04-18T09:30:22.369Z,3.44
2023-04-18T09:31:22.345Z,3.18
2023-04-18T09:32:22.200Z,3.17
2023-04-18T09:33:22.063Z,3.28
2023-04-18T09:34:21.975Z,3.19
2023-04-18T09:35:21.867Z,3.70
2023-04-18T09:36:21.775Z,3.20
2023-04-18T09:37:21.705Z,3.51
2023-04-18T09:38:21.659Z,3.59
2023-04-18T09:39:21.572Z,3.56
2023-04-18T09:40:21.498Z,3.35
2023-04-18T09:41:21.741Z,3.75
2023-04-18T09:42:22.031Z,4.03
2023-04-18T09:43:22.124Z,4.28
2023-04-18T09:44:22.267Z,4.15
2023-04-18T09:45:22.433Z,3.27
2023-04-18T09:46:22.688Z,3.54
2023-04-18T09:47:22.806Z,3.52
2023-04-18T09:48:23.002Z,3.92
2023-04-18T09:49:23.141Z,2.96
2023-04-18T09:50:23.367Z,3.30
2023-04-18T09:51:23.503Z,2.89
2023-04-18T09:52:23.833Z,3.93
2023-04-18T09:53:23.843Z,3.50
2023-04-18T09:54:24.098Z,2.99
2023-04-18T09:55:24.427Z,3.73
2023-04-18T09:56:24.433Z,3.44
2023-04-18T09:57:25.322Z,3.43
2023-04-18T09:58:24.155Z,3.06
2023-04-18T09:59:24.070Z,3.09
2023-04-18T10:00:24.064Z,3.26
2023-04-18T10:01:23.799Z,3.33
2023-04-18T10:02:24.608Z,3.79
2023-04-18T10:03:23.607Z,3.47
2023-04-18T10:04:23.452Z,3.25
2023-04-18T10:05:23.282Z,3.45
2023-04-18T10:06:23.130Z,3.01
2023-04-18T10:07:23.009Z,3.08
2023-04-18T10:08:23.494Z,3.12
2023-04-18T10:09:22.734Z,3.26
2023-04-18T10:10:22.662Z,4.55
2023-04-18T10:11:22.471Z,2.75
2023-04-18T10:12:22.393Z,3.76
2023-04-18T10:13:22.321Z,3.18
2023-04-18T10:14:22.241Z,3.56
2023-04-18T10:15:22.234Z,3.32
2023-04-18T10:16:24.041Z,3.74
2023-04-18T10:17:22.049Z,3.28
2023-04-18T10:18:21.897Z,3.79
2023-04-18T10:19:21.749Z,3.18
2023-04-18T10:20:22.534Z,3.56
2023-04-18T10:21:21.531Z,3.62
2023-04-18T10:22:21.477Z,3.66
2023-04-18T10:23:23.025Z,3.34
2023-04-18T10:24:21.252Z,3.13
2023-04-18T10:25:21.168Z,2.64
2023-04-18T10:26:21.990Z,3.57
2023-04-18T10:27:23.017Z,3.46
2023-04-18T10:28:21.063Z,3.75
2023-04-18T10:29:21.077Z,3.57
2023-04-18T10:30:21.543Z,3.29
2023-04-18T10:31:20.733Z,3.66
2023-04-18T10:32:20.613Z,3.54
2023-04-18T10:33:30.309Z,3.12
2023-04-18T10:34:21.549Z,3.18
2023-04-18T10:35:21.017Z,3.11
2023-04-18T10:36:20.105Z,2.84
2023-04-18T10:37:19.998Z,2.75
2023-04-18T10:38:20.015Z,4.13
2023-04-18T10:39:20.144Z,3.27
2023-04-18T10:40:20.317Z,3.00
2023-04-18T10:41:20.480Z,2.91
2023-04-18T10:42:20.642Z,2.87
2023-04-18T10:43:20.775Z,3.15
2023-04-18T10:44:20.923Z,3.28
2023-04-18T10:45:21.069Z,3.06
2023-04-18T10:46:31.782Z,2.86
2023-04-18T10:47:22.230Z,2.81
2023-04-18T10:48:21.029Z,2.88
2023-04-18T10:49:22.349Z,2.53
2023-04-18T10:50:20.695Z,2.95
2023-04-18T10:51:23.019Z,2.65
2023-04-18T10:52:20.570Z,2.94
2023-04-18T10:53:20.436Z,2.45
2023-04-18T10:54:20.434Z,3.08
2023-04-18T10:55:20.595Z,3.05
2023-04-18T10:56:20.693Z,2.74
2023-04-18T10:57:20.906Z,3.24
2023-04-18T10:58:21.039Z,2.82
2023-04-18T10:59:21.174Z,2.92
2023-04-18T11:00:22.213Z,2.97
2023-04-18T11:01:22.299Z,2.62
2023-04-18T11:02:21.148Z,2.45
2023-04-18T11:03:20.987Z,2.77
2023-04-18T11:04:21.048Z,2.99
2023-04-18T11:05:20.622Z,2.55
2023-04-18T11:06:20.509Z,2.41
2023-04-18T11:07:20.360Z,2.44
2023-04-18T11:08:20.229Z,2.74
2023-04-18T11:09:20.094Z,2.75
2023-04-18T11:10:20.115Z,2.56
2023-04-18T11:11:19.821Z,3.50
2023-04-18T11:12:19.663Z,3.38
2023-04-18T11:13:19.525Z,2.96
2023-04-18T11:14:19.396Z,2.59
2023-04-18T11:15:19.349Z,2.92
2023-04-18T11:16:19.557Z,2.72
2023-04-18T11:17:19.725Z,2.33
2023-04-18T11:18:19.896Z,2.56
2023-04-18T11:19:20.049Z,2.58
2023-04-18T11:20:20.240Z,2.92
2023-04-18T11:21:20.429Z,2.63
2023-04-18T11:22:20.547Z,2.87
2023-04-18T11:23:20.771Z,2.56
2023-04-18T11:24:20.976Z,2.70
2023-04-18T11:25:21.179Z,2.57
2023-04-18T11:26:21.293Z,2.86
2023-04-18T11:27:21.487Z,2.90
2023-04-18T11:28:21.669Z,3.14
2023-04-18T11:29:21.777Z,2.58
2023-04-18T11:30:21.930Z,2.74
2023-04-18T11:31:22.184Z,3.40
2023-04-18T11:32:22.418Z,2.92
2023-04-18T11:33:22.484Z,3.43
2023-04-18T11:34:22.613Z,2.95
2023-04-18T11:35:22.771Z,3.11
2023-04-18T11:36:22.964Z,2.91
2023-04-18T11:37:23.089Z,2.90
2023-04-18T11:38:24.318Z,2.38
2023-04-18T11:39:23.068Z,2.59
2023-04-18T11:40:22.913Z,2.83
2023-04-18T11:41:22.748Z,3.12
2023-04-18T11:42:22.595Z,2.84
2023-04-18T11:43:22.461Z,2.80
2023-04-18T11:44:22.330Z,3.06
2023-04-18T11:45:22.183Z,3.02
2023-04-18T11:46:22.096Z,2.60
2023-04-18T11:47:21.946Z,2.76
2023-04-18T11:48:21.789Z,3.25
2023-04-18T11:49:21.664Z,2.99
2023-04-18T11:50:21.531Z,2.04
2023-04-18T11:51:21.360Z,2.65
2023-04-18T11:52:21.497Z,2.49
2023-04-18T11:53:21.593Z,3.31
2023-04-18T11:54:21.748Z,2.99
2023-04-18T11:55:21.919Z,2.48
2023-04-18T11:56:22.040Z,3.15
2023-04-18T11:57:22.270Z,3.07
2023-04-18T11:58:22.365Z,2.47
2023-04-18T11:59:22.518Z,3.10
2023-04-18T12:00:22.658Z,2.44
2023-04-18T12:01:22.809Z,2.88
2023-04-18T12:02:23.069Z,2.36
2023-04-18T12:03:23.226Z,2.50
2023-04-18T12:04:23.650Z,2.64
2023-04-18T12:05:23.371Z,2.83
2023-04-18T12:06:23.165Z,2.69
2023-04-18T12:07:22.850Z,2.39
2023-04-18T12:08:22.715Z,2.22
2023-04-18T12:09:22.555Z,2.34
2023-04-18T12:10:22.467Z,2.24
2023-04-18T12:11:22.322Z,2.32
2023-04-18T12:12:22.219Z,2.31
2023-04-18T12:13:22.084Z,2.09
2023-04-18T12:14:21.929Z,2.69
2023-04-18T12:15:21.813Z,2.74
2023-04-18T12:16:21.719Z,1.97
2023-04-18T12:17:21.595Z,2.91
2023-04-18T12:18:21.641Z,2.77
2023-04-18T12:19:21.793Z,2.03
2023-04-18T12:20:21.897Z,2.38
2023-04-18T12:21:22.098Z,2.31
2023-04-18T12:22:22.205Z,2.38
2023-04-18T12:23:22.329Z,2.13
2023-04-18T12:24:22.563Z,2.29
2023-04-18T12:25:25.172Z,2.42
2023-04-18T12:26:22.492Z,15.50
2023-04-18T12:27:22.308Z,16.13
2023-04-18T12:28:22.127Z,3.77
2023-04-18T12:29:21.951Z,3.03
2023-04-18T12:30:21.761Z,2.38
2023-04-18T12:31:21.616Z,2.07
2023-04-18T12:32:21.398Z,2.24
2023-04-18T12:33:21.176Z,2.28
2023-04-18T12:34:20.988Z,2.19
2023-04-18T12:35:20.802Z,1.72
2023-04-18T12:36:20.597Z,2.09
2023-04-18T12:37:20.416Z,2.40
2023-04-18T12:38:20.233Z,2.50
2023-04-18T12:39:20.018Z,2.21
2023-04-18T12:40:19.811Z,1.64
2023-04-18T12:41:19.631Z,2.01
2023-04-18T12:42:19.452Z,2.16
2023-04-18T12:43:19.304Z,2.00
2023-04-18T12:44:19.258Z,1.90
2023-04-18T12:45:19.370Z,1.97
2023-04-18T12:46:19.572Z,2.08
2023-04-18T12:47:19.662Z,2.10
2023-04-18T12:48:19.757Z,2.15
2023-04-18T12:49:19.849Z,2.27
2023-04-18T12:50:19.985Z,1.96
2023-04-18T12:51:20.177Z,1.94
2023-04-18T12:52:20.408Z,1.64
2023-04-18T12:53:20.480Z,1.80
2023-04-18T12:54:20.574Z,1.84
2023-04-18T12:55:20.748Z,2.18
2023-04-18T12:56:20.997Z,1.73
2023-04-18T12:57:20.987Z,2.07
2023-04-18T12:58:21.178Z,2.03
2023-04-18T12:59:21.334Z,2.12
2023-04-18T13:00:21.460Z,1.99
2023-04-18T13:01:21.734Z,1.90
2023-04-18T13:02:21.914Z,1.80
2023-04-18T13:03:22.211Z,2.20
2023-04-18T13:04:22.062Z,1.79
2023-04-18T13:05:21.585Z,2.28
2023-04-18T13:06:21.348Z,1.98
2023-04-18T13:07:21.151Z,2.04
2023-04-18T13:08:20.949Z,2.26
2023-04-18T13:09:20.741Z,2.28
2023-04-18T13:10:20.543Z,2.02
2023-04-18T13:11:20.332Z,1.87
2023-04-18T13:12:20.479Z,1.69
2023-04-18T13:13:20.633Z,1.56
2023-04-18T13:14:20.849Z,2.01
2023-04-18T13:15:20.949Z,1.72
2023-04-18T13:16:21.159Z,1.76
2023-04-18T13:17:22.572Z,1.84
2023-04-18T13:18:20.736Z,2.30